Guayas — HCEG — position and weather

sailwx.info

Track history (hours):
 
Tides and Currents Weather Stations Pressure Air Temp Water Temp Dewpoint Dewpoint Depression Visibility Wind Speed Wind Dir Waves Ship Positions

Guayas (Ecuador)

Ecuadorian Navy training vessel.

Last reported at 2017-Aug-29 17:00 UTC. Time now 2017-Dec-16 01:50 UTC.
Position N 08°34' W 079°28'.
Warning: this ship's position is months out of date.

Length 76 m; draft 4.8 m.

MMSI: 735059037.

Date/timePositionNaut miles runAvg speedWind from/ knotsBaromVisibWave heightAir tempDewpointWater temp
2017-Aug-29 17:00N 08°34' W 079°28'  
2017-Aug-24 16:04N 09°11' W 079°52'1 8.6
2017-Aug-24 16:00N 09°11' W 079°52'4 7.9
2017-Aug-24 15:30N 09°13' W 079°55'2 4.8
2017-Aug-24 15:00N 09°15' W 079°55'0 0.3
2017-Aug-24 14:22N 09°16' W 079°55'0 0.1
2017-Aug-24 13:58N 09°16' W 079°55'1 1.7
2017-Aug-24 13:28N 09°16' W 079°55'0 0.4
2017-Aug-24 12:58N 09°16' W 079°55'0 0.3
2017-Aug-24 12:07N 09°17' W 079°55'0 1.1
2017-Aug-24 11:58N 09°17' W 079°55'2 3.7
2017-Aug-24 11:30N 09°19' W 079°55'4 7.4
2017-Aug-24 11:01N 09°22' W 079°55'1 1.4
2017-Aug-24 10:30N 09°23' W 079°54'0 0.0
2017-Aug-24 10:00N 09°23' W 079°54'0 0.0
2017-Aug-24 09:30N 09°23' W 079°54'0 0.0
2017-Aug-24 08:56N 09°23' W 079°54'0 0.0
2017-Aug-24 08:29N 09°23' W 079°54'0 0.0
2017-Aug-24 07:59N 09°23' W 079°54'0 0.0
2017-Aug-24 07:29N 09°23' W 079°54'0 0.1
2017-Aug-24 06:59N 09°23' W 079°54'0 0.0
2017-Aug-24 06:29N 09°23' W 079°54'0 0.0
2017-Aug-24 05:59N 09°23' W 079°54'0 0.0
2017-Aug-24 05:29N 09°23' W 079°54'0 0.0
2017-Aug-24 04:59N 09°23' W 079°54'0 0.0
2017-Aug-24 04:29N 09°23' W 079°54'0 0.0
2017-Aug-24 03:59N 09°23' W 079°54'0 0.0
2017-Aug-24 03:29N 09°23' W 079°54'0 0.0
2017-Aug-24 02:59N 09°23' W 079°54'0 0.0
2017-Aug-24 02:29N 09°23' W 079°54'0 0.0
2017-Aug-24 01:59N 09°23' W 079°54'0 0.0
2017-Aug-24 01:29N 09°23' W 079°54'0 0.0
2017-Aug-24 00:59N 09°23' W 079°54'0 0.0
2017-Aug-24 00:29N 09°23' W 079°54'0 0.0
2017-Aug-23 23:59N 09°23' W 079°54'0 0.0
2017-Aug-23 23:29N 09°23' W 079°54'0 0.0
2017-Aug-23 23:00N 09°23' W 079°54'0 0.0
2017-Aug-23 22:30N 09°23' W 079°54'0 0.0
2017-Aug-23 22:00N 09°23' W 079°54'0 0.1
2017-Aug-23 21:31N 09°23' W 079°54'1 1.5
2017-Aug-23 21:00N 09°23' W 079°55'3 5.8
2017-Aug-23 20:30N 09°25' W 079°57'2 3.0
2017-Aug-23 20:00N 09°27' W 079°57'2 4.9
2017-Aug-23 19:30N 09°25' W 079°59'2 4.9
2017-Aug-23 19:00N 09°24' W 080°01'2 3.9
2017-Aug-23 18:27N 09°24' W 080°04'2 4.0
2017-Aug-23 17:55N 09°24' W 080°06'5 3.0
2017-Aug-23 16:11N 09°22' W 080°11'0 1.3
2017-Aug-23 15:57N 09°21' W 080°11'0 1.0
2017-Aug-23 15:29N 09°21' W 080°11'3 0.4
2017-Aug-23 08:30N 09°22' W 080°09'3 6.5
2017-Aug-23 08:00N 09°23' W 080°05'2 3.5
2017-Aug-23 07:28N 09°24' W 080°04'1 3.1
2017-Aug-23 07:00N 09°25' W 080°04'1 2.2
2017-Aug-23 06:29N 09°27' W 080°03'2 3.2
2017-Aug-23 06:00N 09°28' W 080°03'1 2.4
2017-Aug-23 05:30N 09°29' W 080°02'1 2.3
2017-Aug-23 04:59N 09°30' W 080°03'8 2.8
2017-Aug-23 02:11N 09°37' W 079°60'7 5.7
2017-Aug-23 00:53N 09°30' W 080°00'2 6.4
2017-Aug-23 00:30N 09°27' W 080°01'3 6.1
2017-Aug-23 00:01N 09°24' W 080°01'1 1.6
2017-Aug-22 23:30N 09°24' W 080°02'1 1.8
2017-Aug-22 22:54N 09°24' W 080°03'1 1.5
2017-Aug-22 22:30N 09°23' W 080°04'6 0.4
2017-Aug-22 07:13N 09°23' W 080°09'0 0.1
2017-Aug-22 06:53N 09°23' W 080°09'2 0.6
2017-Aug-22 04:02N 09°23' W 080°08'1 1.7
2017-Aug-22 03:39N 09°24' W 080°07'1 1.9
2017-Aug-22 03:20N 09°24' W 080°07'1 1.8
2017-Aug-22 03:00N 09°24' W 080°06'1 1.6
2017-Aug-22 02:27N 09°25' W 080°06'1 1.4
2017-Aug-22 01:58N 09°25' W 080°05'8 0.3
2017-Aug-20 22:33N 09°21' W 080°11'0 6.9
2017-Aug-20 22:30N 09°21' W 080°11'4 7.1
2017-Aug-20 21:59N 09°22' W 080°08'3 7.0
2017-Aug-20 21:30N 09°23' W 080°04'3 6.7
2017-Aug-20 21:00N 09°27' W 080°03'4 7.3
2017-Aug-20 20:30N 09°30' W 080°03'  
Track history (hours):
 
Tides and Currents Weather Stations Pressure Air Temp Water Temp Dewpoint Dewpoint Depression Visibility Wind Speed Wind Dir Waves Ship Positions

Guayas (Ecuador)

Ecuadorian Navy training vessel.

Last reported at 2017-Aug-29 17:00 UTC. Time now 2017-Dec-16 01:50 UTC.
Position N 08°34' W 079°28'.
Warning: this ship's position is months out of date.

Length 76 m; draft 4.8 m.

MMSI: 735059037.

Date/timePositionNaut miles runAvg speedWind from/ knotsBaromVisibWave heightAir tempDewpointWater temp
2017-Aug-29 17:00N 08°34' W 079°28'  
2017-Aug-24 16:04N 09°11' W 079°52'1 8.6
2017-Aug-24 16:00N 09°11' W 079°52'4 7.9
2017-Aug-24 15:30N 09°13' W 079°55'2 4.8
2017-Aug-24 15:00N 09°15' W 079°55'0 0.3
2017-Aug-24 14:22N 09°16' W 079°55'0 0.1
2017-Aug-24 13:58N 09°16' W 079°55'1 1.7
2017-Aug-24 13:28N 09°16' W 079°55'0 0.4
2017-Aug-24 12:58N 09°16' W 079°55'0 0.3
2017-Aug-24 12:07N 09°17' W 079°55'0 1.1
2017-Aug-24 11:58N 09°17' W 079°55'2 3.7
2017-Aug-24 11:30N 09°19' W 079°55'4 7.4
2017-Aug-24 11:01N 09°22' W 079°55'1 1.4
2017-Aug-24 10:30N 09°23' W 079°54'0 0.0
2017-Aug-24 10:00N 09°23' W 079°54'0 0.0
2017-Aug-24 09:30N 09°23' W 079°54'0 0.0
2017-Aug-24 08:56N 09°23' W 079°54'0 0.0
2017-Aug-24 08:29N 09°23' W 079°54'0 0.0
2017-Aug-24 07:59N 09°23' W 079°54'0 0.0
2017-Aug-24 07:29N 09°23' W 079°54'0 0.1
2017-Aug-24 06:59N 09°23' W 079°54'0 0.0
2017-Aug-24 06:29N 09°23' W 079°54'0 0.0
2017-Aug-24 05:59N 09°23' W 079°54'0 0.0
2017-Aug-24 05:29N 09°23' W 079°54'0 0.0
2017-Aug-24 04:59N 09°23' W 079°54'0 0.0
2017-Aug-24 04:29N 09°23' W 079°54'0 0.0
2017-Aug-24 03:59N 09°23' W 079°54'0 0.0
2017-Aug-24 03:29N 09°23' W 079°54'0 0.0
2017-Aug-24 02:59N 09°23' W 079°54'0 0.0
2017-Aug-24 02:29N 09°23' W 079°54'0 0.0
2017-Aug-24 01:59N 09°23' W 079°54'0 0.0
2017-Aug-24 01:29N 09°23' W 079°54'0 0.0
2017-Aug-24 00:59N 09°23' W 079°54'0 0.0
2017-Aug-24 00:29N 09°23' W 079°54'0 0.0
2017-Aug-23 23:59N 09°23' W 079°54'0 0.0
2017-Aug-23 23:29N 09°23' W 079°54'0 0.0
2017-Aug-23 23:00N 09°23' W 079°54'0 0.0
2017-Aug-23 22:30N 09°23' W 079°54'0 0.0
2017-Aug-23 22:00N 09°23' W 079°54'0 0.1
2017-Aug-23 21:31N 09°23' W 079°54'1 1.5
2017-Aug-23 21:00N 09°23' W 079°55'3 5.8
2017-Aug-23 20:30N 09°25' W 079°57'2 3.0
2017-Aug-23 20:00N 09°27' W 079°57'2 4.9
2017-Aug-23 19:30N 09°25' W 079°59'2 4.9
2017-Aug-23 19:00N 09°24' W 080°01'2 3.9
2017-Aug-23 18:27N 09°24' W 080°04'2 4.0
2017-Aug-23 17:55N 09°24' W 080°06'5 3.0
2017-Aug-23 16:11N 09°22' W 080°11'0 1.3
2017-Aug-23 15:57N 09°21' W 080°11'0 1.0
2017-Aug-23 15:29N 09°21' W 080°11'3 0.4
2017-Aug-23 08:30N 09°22' W 080°09'3 6.5
2017-Aug-23 08:00N 09°23' W 080°05'2 3.5
2017-Aug-23 07:28N 09°24' W 080°04'1 3.1
2017-Aug-23 07:00N 09°25' W 080°04'1 2.2
2017-Aug-23 06:29N 09°27' W 080°03'2 3.2
2017-Aug-23 06:00N 09°28' W 080°03'1 2.4
2017-Aug-23 05:30N 09°29' W 080°02'1 2.3
2017-Aug-23 04:59N 09°30' W 080°03'8 2.8
2017-Aug-23 02:11N 09°37' W 079°60'7 5.7
2017-Aug-23 00:53N 09°30' W 080°00'2 6.4
2017-Aug-23 00:30N 09°27' W 080°01'3 6.1
2017-Aug-23 00:01N 09°24' W 080°01'1 1.6
2017-Aug-22 23:30N 09°24' W 080°02'1 1.8
2017-Aug-22 22:54N 09°24' W 080°03'1 1.5
2017-Aug-22 22:30N 09°23' W 080°04'6 0.4
2017-Aug-22 07:13N 09°23' W 080°09'0 0.1
2017-Aug-22 06:53N 09°23' W 080°09'2 0.6
2017-Aug-22 04:02N 09°23' W 080°08'1 1.7
2017-Aug-22 03:39N 09°24' W 080°07'1 1.9
2017-Aug-22 03:20N 09°24' W 080°07'1 1.8
2017-Aug-22 03:00N 09°24' W 080°06'1 1.6
2017-Aug-22 02:27N 09°25' W 080°06'1 1.4
2017-Aug-22 01:58N 09°25' W 080°05'8 0.3
2017-Aug-20 22:33N 09°21' W 080°11'0 6.9
2017-Aug-20 22:30N 09°21' W 080°11'4 7.1
2017-Aug-20 21:59N 09°22' W 080°08'3 7.0
2017-Aug-20 21:30N 09°23' W 080°04'3 6.7
2017-Aug-20 21:00N 09°27' W 080°03'4 7.3
2017-Aug-20 20:30N 09°30' W 080°03'  

Dump ship's entire track history